Time;durP1;ratioP1;P1;durP2;ratioP2;P2;SDS_P1;SDS_P2;PMS_P1;PMS_P2;Temp;Humidity;BMP_temperature;BMP_pressure;BME280_temperature;BME280_humidity;BME280_pressure;Samples;Min_cycle;Max_cycle;Signal;HPM_P1;HPM_P2
2022/11/19 00:01:52;;;;;;;;;;;;;;;21.53;47.98;100726.88;7253386;19;153363;-59
2022/11/19 00:04:18;;;;;;;;;;;;;;;21.56;48.10;100731.91;7253972;19;154763;-59
2022/11/19 00:06:45;;;;;;;;;;;;;;;21.59;48.09;100733.22;7252993;19;153594;-60
2022/11/19 00:09:13;;;;;;;;;;;;;;;21.60;48.20;100726.44;7252038;19;153848;-59
2022/11/19 00:14:25;;;;;;;;;;;;;;;21.65;48.06;100738.41;7259955;19;154029;-59
2022/11/19 00:16:52;;;;;;;;;;;;;;;21.67;47.88;100729.63;7252358;19;154239;-59
2022/11/19 00:19:18;;;;;;;;;;;;;;;21.68;48.35;100736.91;7254500;19;154081;-59
2022/11/19 00:21:47;;;;;;;;;;;;;;;21.71;48.15;100737.09;7250350;19;154182;-59
2022/11/19 00:24:14;;;;;;;;;;;;;;;21.72;48.10;100735.94;7252548;19;153710;-60
2022/11/19 00:26:40;;;;;;;;;;;;;;;21.74;47.94;100741.25;7250301;19;153962;-59
2022/11/19 00:29:09;;;;;;;;;;;;;;;21.76;48.04;100746.56;7256375;19;154146;-59
2022/11/19 00:31:42;;;;;;;;;;;;;;;21.77;47.92;100746.22;7255005;19;155352;-60
2022/11/19 00:34:09;;;;;;;;;;;;;;;21.79;48.23;100748.75;7251061;19;155593;-59
2022/11/19 00:36:36;;;;;;;;;;;;;;;21.79;48.33;100759.97;7257729;19;154563;-60
2022/11/19 00:39:02;;;;;;;;;;;;;;;21.79;47.98;100759.97;7251968;19;154459;-59
2022/11/19 00:41:29;;;;;;;;;;;;;;;21.79;48.00;100758.00;7252214;19;153468;-59
2022/11/19 00:43:56;;;;;;;;;;;;;;;21.79;48.17;100762.81;7261940;19;154740;-60
2022/11/19 00:46:23;;;;;;;;;;;;;;;21.77;48.16;100748.22;7263041;19;153648;-59
2022/11/19 00:48:51;;;;;;;;;;;;;;;21.77;47.78;100753.84;7260345;19;153297;-59
2022/11/19 00:51:18;;;;;;;;;;;;;;;21.76;48.07;100755.81;7260179;19;154197;-59
2022/11/19 00:53:45;;;;;;;;;;;;;;;21.75;48.00;100751.38;7256105;19;153306;-59
2022/11/19 00:56:13;;;;;;;;;;;;;;;21.75;47.81;100751.38;7258217;19;153571;-58
2022/11/19 00:58:40;;;;;;;;;;;;;;;21.76;47.65;100760.63;7266500;19;155197;-60
2022/11/19 01:01:07;;;;;;;;;;;;;;;21.74;47.60;100760.94;7257227;19;153677;-58
2022/11/19 01:03:34;;;;;;;;;;;;;;;21.74;48.01;100761.78;7259461;19;154362;-59
2022/11/19 01:06:01;;;;;;;;;;;;;;;21.73;47.74;100768.56;7256633;19;154073;-61
2022/11/19 01:08:28;;;;;;;;;;;;;;;21.73;48.49;100760.13;7256782;19;153950;-59
2022/11/19 01:10:55;;;;;;;;;;;;;;;21.71;48.19;100756.78;7258661;19;155364;-61
2022/11/19 01:13:34;;;;;;;;;;;;;;;21.70;48.29;100759.94;7260031;19;153732;-59
2022/11/19 01:16:11;;;;;;;;;;;;;;;21.70;48.36;100757.97;7255363;19;153023;-61
2022/11/19 01:18:39;;;;;;;;;;;;;;;21.67;47.87;100761.38;7259340;19;154816;-59
2022/11/19 01:21:06;;;;;;;;;;;;;;;21.65;47.48;100760.06;7263928;19;154077;-59
2022/11/19 01:23:33;;;;;;;;;;;;;;;21.62;47.56;100758.72;7254318;19;154348;-59
2022/11/19 01:26:00;;;;;;;;;;;;;;;21.59;47.32;100762.16;7255806;19;153402;-61
2022/11/19 01:28:27;;;;;;;;;;;;;;;21.56;47.64;100761.97;7258843;19;153726;-59
2022/11/19 01:30:54;;;;;;;;;;;;;;;21.52;47.57;100772.22;7258189;19;154237;-60
2022/11/19 01:33:21;;;;;;;;;;;;;;;21.50;47.27;100764.09;7258759;19;154370;-60
2022/11/19 01:35:55;;;;;;;;;;;;;;;21.48;47.45;100759.94;7257630;19;153118;-60
2022/11/19 01:38:21;;;;;;;;;;;;;;;21.50;47.81;100757.63;7255453;19;153790;-60
2022/11/19 01:40:48;;;;;;;;;;;;;;;21.48;47.78;100766.41;7265900;19;154051;-60
2022/11/19 01:43:15;;;;;;;;;;;;;;;21.46;47.62;100770.66;7260174;19;153685;-60
2022/11/19 01:45:47;;;;;;;;;;;;;;;21.44;48.03;100773.78;7261086;19;154250;-60
2022/11/19 01:48:23;;;;;;;;;;;;;;;21.43;48.11;100772.16;7265697;19;153741;-60
2022/11/19 01:50:49;;;;;;;;;;;;;;;21.41;47.99;100776.41;7260262;19;154371;-60
2022/11/19 01:53:18;;;;;;;;;;;;;;;21.38;48.11;100774.25;7253683;19;156284;-60
2022/11/19 01:55:45;;;;;;;;;;;;;;;21.37;48.43;100775.38;7255922;19;154713;-60
2022/11/19 01:58:14;;;;;;;;;;;;;;;21.33;48.88;100780.81;7258121;19;153712;-60
2022/11/19 02:00:41;;;;;;;;;;;;;;;21.33;48.84;100782.81;7256397;19;155187;-59
2022/11/19 02:03:08;;;;;;;;;;;;;;;21.30;48.88;100787.88;7264961;19;152112;-59
2022/11/19 02:05:36;;;;;;;;;;;;;;;21.29;48.56;100794.69;7257813;19;155038;-59
2022/11/19 02:08:05;;;;;;;;;;;;;;;21.27;48.89;100796.13;7251192;19;152990;-59
2022/11/19 02:10:51;;;;;;;;;;;;;;;21.28;48.67;100797.81;7256630;19;153278;-59
2022/11/19 02:13:24;;;;;;;;;;;;;;;21.24;48.62;100802.41;7255805;19;153905;-59
2022/11/19 02:15:54;;;;;;;;;;;;;;;21.23;48.81;100807.19;7257596;19;152879;-59
2022/11/19 02:18:33;;;;;;;;;;;;;;;21.27;48.74;100805.41;7253604;19;155424;-59
2022/11/19 02:21:07;;;;;;;;;;;;;;;21.23;48.37;100801.56;7256254;19;154692;-59
2022/11/19 02:23:51;;;;;;;;;;;;;;;21.24;48.53;100802.41;7253408;19;154411;-59
2022/11/19 02:26:23;;;;;;;;;;;;;;;21.22;48.65;100801.88;7263412;19;154416;-59
2022/11/19 02:28:52;;;;;;;;;;;;;;;21.24;48.19;100799.59;7257044;19;152507;-60
2022/11/19 02:31:22;;;;;;;;;;;;;;;21.22;48.37;100797.09;7256336;19;154287;-60
2022/11/19 02:33:58;;;;;;;;;;;;;;;21.22;48.60;100796.25;7254896;19;155297;-61
2022/11/19 02:36:45;;;;;;;;;;;;;;;21.19;48.64;100810.94;7254515;19;153057;-59
2022/11/19 02:39:34;;;;;;;;;;;;;;;21.19;48.68;100806.16;7254536;19;152897;-59
2022/11/19 02:42:07;;;;;;;;;;;;;;;21.17;48.65;100814.06;7255095;19;154062;-59
2022/11/19 02:47:37;;;;;;;;;;;;;;;21.25;47.83;100823.75;7257371;19;154433;-60
2022/11/19 02:50:10;;;;;;;;;;;;;;;21.18;48.10;100812.91;7262629;19;152886;-60
2022/11/19 02:52:39;;;;;;;;;;;;;;;21.17;48.37;100813.22;7254782;19;153471;-59
2022/11/19 02:55:06;;;;;;;;;;;;;;;21.16;48.38;100811.59;7254761;19;154130;-59
2022/11/19 02:57:34;;;;;;;;;;;;;;;21.15;48.24;100818.34;7250226;19;154692;-59
2022/11/19 03:05:55;;;;;;;;;;;;;;;21.11;48.04;100814.47;7253232;19;154360;-59
2022/11/19 03:08:22;;;;;;;;;;;;;;;21.05;48.46;100815.72;7253623;19;153684;-59
2022/11/19 03:11:09;;;;;;;;;;;;;;;21.06;48.20;100817.41;7253982;19;154204;-59
2022/11/19 03:16:41;;;;;;;;;;;;;;;21.06;48.14;100815.41;7253763;19;154011;-60
2022/11/19 03:19:07;;;;;;;;;;;;;;;21.03;48.08;100816.03;7255843;19;154460;-60
2022/11/19 03:21:37;;;;;;;;;;;;;;;21.02;47.94;100813.56;7254794;19;153623;-60
2022/11/19 03:24:06;;;;;;;;;;;;;;;21.04;48.04;100823.31;7253867;19;155376;-59
2022/11/19 03:26:35;;;;;;;;;;;;;;;21.01;48.30;100820.31;7254119;19;153621;-59
2022/11/19 03:29:04;;;;;;;;;;;;;;;20.93;48.04;100816.28;7254629;19;153788;-60
2022/11/19 03:31:33;;;;;;;;;;;;;;;20.91;48.45;100814.91;7253625;19;154737;-60
2022/11/19 03:34:01;;;;;;;;;;;;;;;20.87;48.33;100811.91;7255379;19;153517;-60
2022/11/19 03:36:34;;;;;;;;;;;;;;;20.89;48.32;100826.47;7259755;19;154180;-61
2022/11/19 03:39:09;;;;;;;;;;;;;;;20.86;48.41;100825.13;7253060;19;154077;-60
2022/11/19 03:41:37;;;;;;;;;;;;;;;20.86;48.34;100819.50;7253213;19;153157;-60
2022/11/19 03:44:11;;;;;;;;;;;;;;;20.83;48.49;100825.75;7253530;19;154343;-60
2022/11/19 03:46:38;;;;;;;;;;;;;;;20.82;48.87;100824.09;7255635;19;153237;-60
2022/11/19 03:49:06;;;;;;;;;;;;;;;20.80;48.68;100831.97;7253040;19;152724;-60
2022/11/19 03:52:01;;;;;;;;;;;;;;;20.79;48.67;100821.06;7252378;19;154587;-60
2022/11/19 03:54:28;;;;;;;;;;;;;;;20.76;48.66;100828.13;7251459;19;153616;-60
2022/11/19 03:56:56;;;;;;;;;;;;;;;20.74;49.28;100827.63;7259274;19;154097;-60
2022/11/19 03:59:23;;;;;;;;;;;;;;;20.76;48.85;100819.72;7254588;19;153641;-60
2022/11/19 04:01:57;;;;;;;;;;;;;;;20.76;49.20;100824.50;7253505;19;153585;-60
2022/11/19 04:04:36;;;;;;;;;;;;;;;20.75;49.32;100820.03;7254486;19;154853;-60
2022/11/19 04:07:13;;;;;;;;;;;;;;;20.72;49.49;100809.41;7250959;19;154561;-60
2022/11/19 04:09:40;;;;;;;;;;;;;;;20.72;49.49;100818.69;7252424;19;153099;-60
2022/11/19 04:12:12;;;;;;;;;;;;;;;20.70;49.31;100822.97;7251124;19;154491;-60
2022/11/19 04:14:39;;;;;;;;;;;;;;;20.68;49.74;100819.63;7253412;19;153676;-59
2022/11/19 04:17:05;;;;;;;;;;;;;;;20.63;49.90;100817.75;7255372;19;154126;-59
2022/11/19 04:19:32;;;;;;;;;;;;;;;20.57;50.14;100821.81;7267042;19;154462;-59
2022/11/19 04:21:59;;;;;;;;;;;;;;;20.55;50.24;100826.06;7259386;19;153919;-59
2022/11/19 04:24:25;;;;;;;;;;;;;;;20.52;50.32;100826.69;7257218;19;153840;-59
2022/11/19 04:26:52;;;;;;;;;;;;;;;20.50;50.65;100837.38;7261273;19;154322;-59
2022/11/19 04:29:19;;;;;;;;;;;;;;;20.49;50.58;100836.56;7261761;19;154698;-59
2022/11/19 04:31:46;;;;;;;;;;;;;;;20.48;50.38;100840.53;7259214;19;154893;-59
2022/11/19 04:34:12;;;;;;;;;;;;;;;20.46;50.24;100842.81;7260176;19;154257;-59
2022/11/19 04:36:40;;;;;;;;;;;;;;;20.46;50.43;100842.81;7257771;19;153967;-58
2022/11/19 04:39:08;;;;;;;;;;;;;;;20.42;50.78;100848.22;7259716;19;154025;-58
2022/11/19 04:41:35;;;;;;;;;;;;;;;20.42;50.68;100847.38;7267637;19;153653;-58
2022/11/19 04:44:02;;;;;;;;;;;;;;;20.39;50.43;100836.78;7258365;19;154915;-58
2022/11/19 04:46:28;;;;;;;;;;;;;;;20.38;50.54;100837.91;7260078;19;152307;-58
2022/11/19 04:48:55;;;;;;;;;;;;;;;20.38;50.75;100843.53;7260470;19;155762;-61
2022/11/19 04:51:22;;;;;;;;;;;;;;;20.37;50.81;100848.31;7258675;19;154493;-61
2022/11/19 04:53:49;;;;;;;;;;;;;;;20.36;50.55;100854.22;7256149;19;153296;-60
2022/11/19 04:56:16;;;;;;;;;;;;;;;20.33;50.47;100844.47;7259244;19;154296;-59
2022/11/19 04:58:42;;;;;;;;;;;;;;;20.35;50.84;100849.78;7257901;19;154958;-61
2022/11/19 05:01:09;;;;;;;;;;;;;;;20.32;50.98;100855.97;7260156;19;154738;-61
2022/11/19 05:03:36;;;;;;;;;;;;;;;20.35;50.60;100858.19;7269713;19;153769;-61
2022/11/19 05:06:03;;;;;;;;;;;;;;;20.31;51.05;100849.53;7258086;19;155190;-61
2022/11/19 05:08:29;;;;;;;;;;;;;;;20.31;51.05;100865.53;7257632;19;154700;-61
2022/11/19 05:10:56;;;;;;;;;;;;;;;20.31;50.57;100863.56;7257122;19;156333;-60
2022/11/19 05:13:23;;;;;;;;;;;;;;;20.28;50.76;100864.16;7259602;19;153172;-60
2022/11/19 05:15:49;;;;;;;;;;;;;;;20.27;50.93;100861.66;7259732;19;153869;-60
2022/11/19 05:18:16;;;;;;;;;;;;;;;20.28;50.75;100866.13;7255718;19;153367;-60
2022/11/19 05:20:43;;;;;;;;;;;;;;;20.29;51.22;100870.59;7259080;19;155319;-61
2022/11/19 05:23:09;;;;;;;;;;;;;;;20.30;50.91;100863.91;7257008;19;152766;-61
2022/11/19 05:25:36;;;;;;;;;;;;;;;20.26;51.04;100866.44;7264518;19;153541;-61
2022/11/19 05:28:03;;;;;;;;;;;;;;;20.25;50.80;100872.38;7257771;19;153586;-61
2022/11/19 05:30:29;;;;;;;;;;;;;;;20.22;51.03;100870.16;7257450;19;155329;-61
2022/11/19 05:32:56;;;;;;;;;;;;;;;20.24;50.96;100876.31;7258438;19;153747;-61
2022/11/19 05:35:22;;;;;;;;;;;;;;;20.22;50.77;100878.56;7259218;19;153809;-60
2022/11/19 05:37:49;;;;;;;;;;;;;;;20.22;50.96;100876.59;7252896;19;153849;-60
2022/11/19 05:40:17;;;;;;;;;;;;;;;20.21;50.63;100877.78;7257429;19;155016;-60
2022/11/19 05:42:43;;;;;;;;;;;;;;;20.23;50.72;100880.25;7258412;19;152976;-61
2022/11/19 05:45:10;;;;;;;;;;;;;;;20.22;50.80;100878.56;7256410;19;153882;-61
2022/11/19 05:47:37;;;;;;;;;;;;;;;20.20;50.89;100880.88;7264859;19;152511;-61
2022/11/19 05:50:04;;;;;;;;;;;;;;;20.19;50.67;100882.84;7257172;19;154211;-58
2022/11/19 05:52:37;;;;;;;;;;;;;;;20.18;50.64;100889.59;7256678;19;152499;-61
2022/11/19 05:55:04;;;;;;;;;;;;;;;20.17;50.62;100889.91;7256725;19;154430;-61
2022/11/19 05:57:30;;;;;;;;;;;;;;;20.16;50.75;100896.66;7253608;19;154771;-61
2022/11/19 05:59:57;;;;;;;;;;;;;;;20.13;50.65;100897.25;7252628;19;154211;-61
2022/11/19 06:02:30;;;;;;;;;;;;;;;20.14;50.63;100893.31;7258330;19;153984;-61
2022/11/19 06:04:57;;;;;;;;;;;;;;;20.11;50.95;100899.53;7256226;19;154057;-60
2022/11/19 06:07:23;;;;;;;;;;;;;;;20.10;51.21;100904.31;7261291;19;153301;-60
2022/11/19 06:09:50;;;;;;;;;;;;;;;20.10;50.58;100909.94;7255082;19;153238;-60
2022/11/19 06:12:17;;;;;;;;;;;;;;;20.06;50.91;100903.28;7256143;19;154861;-61
2022/11/19 06:14:43;;;;;;;;;;;;;;;20.04;51.21;100916.75;7257821;19;154615;-60
2022/11/19 06:17:10;;;;;;;;;;;;;;;20.04;51.16;100913.94;7256237;19;155035;-60
2022/11/19 06:19:37;;;;;;;;;;;;;;;20.01;51.35;100919.34;7256353;19;152183;-61
2022/11/19 06:22:04;;;;;;;;;;;;;;;19.98;50.99;100910.41;7255517;19;154381;-60
2022/11/19 06:24:30;;;;;;;;;;;;;;;19.98;51.04;100915.19;7253671;19;154386;-61
2022/11/19 06:26:57;;;;;;;;;;;;;;;19.97;51.38;100916.31;7256500;19;154227;-60
2022/11/19 06:29:24;;;;;;;;;;;;;;;19.96;51.33;100918.28;7263294;19;153853;-60
2022/11/19 06:31:51;;;;;;;;;;;;;;;19.95;51.10;100919.44;7256653;19;153286;-60
2022/11/19 06:34:17;;;;;;;;;;;;;;;19.94;51.02;100922.56;7257650;19;154601;-60
2022/11/19 06:36:44;;;;;;;;;;;;;;;19.93;51.16;100918.91;7254364;19;153923;-60
2022/11/19 06:39:16;;;;;;;;;;;;;;;19.93;51.06;100920.88;7252531;19;152793;-60
2022/11/19 06:41:43;;;;;;;;;;;;;;;19.91;51.15;100929.59;7255786;19;153075;-60
2022/11/19 06:44:09;;;;;;;;;;;;;;;19.93;51.24;100929.28;7256300;19;154744;-60
2022/11/19 06:46:37;;;;;;;;;;;;;;;19.94;51.23;100933.78;7253939;19;152610;-60
2022/11/19 06:49:04;;;;;;;;;;;;;;;19.93;50.93;100937.72;7256573;19;155424;-60
2022/11/19 06:51:31;;;;;;;;;;;;;;;19.92;51.25;100944.44;7261605;19;156127;-61
2022/11/19 06:53:58;;;;;;;;;;;;;;;19.90;51.05;100939.13;7253023;19;155236;-60
2022/11/19 06:56:25;;;;;;;;;;;;;;;19.89;51.07;100943.09;7255078;19;154067;-60
2022/11/19 06:58:54;;;;;;;;;;;;;;;19.89;51.13;100943.09;7253082;19;153938;-60
2022/11/19 07:01:21;;;;;;;;;;;;;;;19.88;51.04;100937.78;7256727;19;153607;-60
2022/11/19 07:03:48;;;;;;;;;;;;;;;19.88;51.26;100946.19;7254127;19;153907;-60
2022/11/19 07:06:15;;;;;;;;;;;;;;;19.89;51.27;100936.66;7257108;19;154056;-60
2022/11/19 07:08:42;;;;;;;;;;;;;;;19.89;51.55;100937.50;7248191;19;155460;-61
2022/11/19 07:11:27;;;;;;;;;;;;;;;19.92;51.64;100950.06;7249239;19;153587;-61
2022/11/19 07:13:57;;;;;;;;;;;;;;;19.95;51.98;100950.28;7263138;19;153983;-60
2022/11/19 07:16:26;;;;;;;;;;;;;;;19.97;52.33;100953.63;7255557;19;154739;-60
2022/11/19 07:18:55;;;;;;;;;;;;;;;19.99;52.28;100956.94;7251253;19;153212;-60
2022/11/19 07:21:21;;;;;;;;;;;;;;;20.04;52.43;100957.97;7254952;19;155610;-60
2022/11/19 07:23:48;;;;;;;;;;;;;;;20.07;52.01;100952.63;7252498;19;155069;-61
2022/11/19 07:26:15;;;;;;;;;;;;;;;20.12;52.58;100963.75;7254636;19;153484;-61
2022/11/19 07:28:41;;;;;;;;;;;;;;;20.16;52.63;100955.56;7255163;19;154051;-61
2022/11/19 07:31:08;;;;;;;;;;;;;;;20.20;52.38;100965.88;7253917;19;153153;-61
2022/11/19 07:33:37;;;;;;;;;;;;;;;20.24;52.64;100955.69;7256086;19;154326;-60
2022/11/19 07:36:05;;;;;;;;;;;;;;;20.29;53.07;100957.59;7261403;19;153452;-60
2022/11/19 07:38:32;;;;;;;;;;;;;;;20.33;52.72;100958.66;7251469;19;154112;-61
2022/11/19 07:42:47;;;;;;;;;;;;;;;20.37;52.81;100957.75;7254789;19;153212;-61
2022/11/19 07:43:49;;;;;;;;;;;;;;;20.42;52.67;100968.03;7252769;19;154422;-60
2022/11/19 07:46:16;;;;;;;;;;;;;;;20.47;52.61;100955.91;7256053;19;153255;-61
2022/11/19 07:48:43;;;;;;;;;;;;;;;20.51;53.03;100968.16;7253551;19;153969;-61
2022/11/19 07:51:09;;;;;;;;;;;;;;;20.56;52.47;100970.91;7252914;19;153098;-60
2022/11/19 07:53:36;;;;;;;;;;;;;;;20.60;52.89;100969.97;7250962;19;153693;-60
2022/11/19 07:56:02;;;;;;;;;;;;;;;20.64;52.69;100978.59;7254464;19;153856;-60
2022/11/19 07:58:29;;;;;;;;;;;;;;;20.68;52.74;100966.44;7258865;19;153847;-60
2022/11/19 08:00:56;;;;;;;;;;;;;;;20.73;52.60;100969.16;7257522;19;152978;-60
2022/11/19 08:03:22;;;;;;;;;;;;;;;20.77;52.75;100973.00;7252790;19;154562;-61
2022/11/19 08:05:49;;;;;;;;;;;;;;;20.81;52.54;100971.25;7252408;19;153841;-60
2022/11/19 08:08:16;;;;;;;;;;;;;;;20.86;52.34;100979.56;7250018;19;153466;-60
2022/11/19 08:10:42;;;;;;;;;;;;;;;20.91;52.19;100969.38;7250919;19;153831;-60
2022/11/19 08:13:09;;;;;;;;;;;;;;;20.96;52.21;100975.75;7254943;19;152999;-60
2022/11/19 08:15:36;;;;;;;;;;;;;;;21.01;52.40;100978.47;7253062;19;153851;-60
2022/11/19 08:18:11;;;;;;;;;;;;;;;21.05;52.37;100978.66;7256199;19;153962;-60
2022/11/19 08:20:39;;;;;;;;;;;;;;;21.10;52.12;100984.19;7253214;19;153950;-60
2022/11/19 08:23:06;;;;;;;;;;;;;;;21.15;52.17;100981.31;7248917;19;155803;-60
2022/11/19 08:25:35;;;;;;;;;;;;;;;21.18;52.11;100978.69;7252022;19;153379;-60
2022/11/19 08:28:02;;;;;;;;;;;;;;;21.23;51.72;100986.19;7253429;19;154304;-60
2022/11/19 08:30:29;;;;;;;;;;;;;;;21.27;51.77;100993.69;7252501;19;154538;-60
2022/11/19 08:32:56;;;;;;;;;;;;;;;21.32;51.53;100991.91;7252573;19;153641;-60
2022/11/19 08:35:23;;;;;;;;;;;;;;;21.35;51.37;100997.72;7254967;19;153887;-60
2022/11/19 08:37:50;;;;;;;;;;;;;;;21.38;51.27;101002.75;7248173;19;154633;-60
2022/11/19 08:40:17;;;;;;;;;;;;;;;21.41;51.33;100990.88;7261092;19;153872;-60
2022/11/19 08:42:59;;;;;;;;;;;;;;;21.45;51.53;100994.72;7251250;19;157998;-60
2022/11/19 08:45:30;;;;;;;;;;;;;;;21.48;51.07;100996.91;7253780;19;153512;-60
2022/11/19 08:47:57;;;;;;;;;;;;;;;21.51;51.33;100993.47;7254064;19;153200;-59
2022/11/19 08:50:24;;;;;;;;;;;;;;;21.53;51.23;100991.16;7252272;19;153898;-60
2022/11/19 08:52:54;;;;;;;;;;;;;;;21.56;51.43;100992.53;7249180;19;154100;-59
2022/11/19 08:55:21;;;;;;;;;;;;;;;21.58;51.00;100995.84;7253158;19;154161;-60
2022/11/19 08:57:48;;;;;;;;;;;;;;;21.59;51.35;100994.69;7249031;19;153689;-60
2022/11/19 09:00:15;;;;;;;;;;;;;;;21.63;51.39;101001.34;7252509;19;155368;-60
2022/11/19 09:02:42;;;;;;;;;;;;;;;21.64;50.52;101003.03;7260667;19;154041;-59
2022/11/19 09:05:09;;;;;;;;;;;;;;;21.66;49.45;101004.41;7258548;19;153770;-59
2022/11/19 09:07:40;;;;;;;;;;;;;;;21.62;49.06;101014.56;7252963;19;153953;-60
2022/11/19 09:10:07;;;;;;;;;;;;;;;21.47;43.69;101005.66;7255560;19;152350;-56
2022/11/19 09:12:34;;;;;;;;;;;;;;;21.26;44.02;101003.25;7253840;19;153836;-61
2022/11/19 09:15:00;;;;;;;;;;;;;;;21.29;44.77;101007.44;7252513;19;153851;-61
2022/11/19 09:17:27;;;;;;;;;;;;;;;21.28;44.81;101002.94;7252513;19;155646;-61
2022/11/19 09:19:54;;;;;;;;;;;;;;;21.28;45.37;101008.56;7257843;19;153655;-61
2022/11/19 09:22:20;;;;;;;;;;;;;;;21.27;45.30;101004.94;7256968;19;153226;-61
2022/11/19 09:24:47;;;;;;;;;;;;;;;21.26;45.57;101013.66;7262629;19;153923;-61
2022/11/19 09:27:14;;;;;;;;;;;;;;;21.25;45.95;101014.81;7260132;19;155293;-61
2022/11/19 09:29:40;;;;;;;;;;;;;;;21.22;45.99;101015.44;7257899;19;155223;-60
2022/11/19 09:32:07;;;;;;;;;;;;;;;21.23;46.07;101017.09;7259929;19;153554;-60
2022/11/19 09:34:34;;;;;;;;;;;;;;;21.22;45.61;101015.44;7258509;19;152730;-61
2022/11/19 09:37:00;;;;;;;;;;;;;;;21.19;45.74;101022.53;7256266;19;156581;-61
2022/11/19 09:39:27;;;;;;;;;;;;;;;21.20;45.70;101018.56;7254859;19;153315;-61
2022/11/19 09:42:05;;;;;;;;;;;;;;;21.21;45.69;101025.84;7259133;19;155055;-61
2022/11/19 09:44:39;;;;;;;;;;;;;;;21.20;45.83;101035.44;7257744;19;155938;-60
2022/11/19 09:47:20;;;;;;;;;;;;;;;21.18;46.07;101034.06;7264756;19;154550;-61
2022/11/19 09:49:51;;;;;;;;;;;;;;;21.14;45.88;101031.03;7257915;19;153721;-61
2022/11/19 09:52:20;;;;;;;;;;;;;;;21.15;45.88;101038.34;7255500;19;153881;-60
2022/11/19 09:54:48;;;;;;;;;;;;;;;21.13;45.54;101039.78;7257997;19;155042;-60
2022/11/19 09:57:20;;;;;;;;;;;;;;;21.10;45.55;101034.75;7256036;19;154386;-61
2022/11/19 09:59:49;;;;;;;;;;;;;;;21.08;45.57;101029.44;7255129;19;154303;-60
2022/11/19 10:02:17;;;;;;;;;;;;;;;21.06;45.87;101028.94;7258600;19;153235;-61
2022/11/19 10:04:45;;;;;;;;;;;;;;;21.07;46.24;101029.75;7257583;19;153724;-60
2022/11/19 10:07:21;;;;;;;;;;;;;;;21.07;46.15;101036.22;7262118;19;153566;-61
2022/11/19 10:09:47;;;;;;;;;;;;;;;21.03;46.20;101045.56;7255665;19;154733;-61
2022/11/19 10:12:23;;;;;;;;;;;;;;;21.06;46.41;101039.31;7257458;19;153812;-61
2022/11/19 10:14:52;;;;;;;;;;;;;;;21.05;46.39;101043.28;7257690;19;152958;-60
2022/11/19 10:17:25;;;;;;;;;;;;;;;21.05;46.43;101043.28;7254737;19;155112;-60
2022/11/19 10:20:08;;;;;;;;;;;;;;;21.05;46.24;101046.91;7226822;19;156289;-60
2022/11/19 10:22:52;;;;;;;;;;;;;;;21.05;46.00;101044.09;7242139;19;154669;-61
2022/11/19 10:25:35;;;;;;;;;;;;;;;21.04;45.88;101041.59;7251211;19;153308;-61
2022/11/19 10:28:21;;;;;;;;;;;;;;;21.04;46.35;101031.19;7256061;19;154071;-60
2022/11/19 10:30:54;;;;;;;;;;;;;;;21.04;46.26;101038.78;7260222;19;154414;-60
2022/11/19 10:33:32;;;;;;;;;;;;;;;21.03;46.18;101035.16;7256294;19;154840;-60
2022/11/19 10:36:05;;;;;;;;;;;;;;;21.03;46.36;101040.75;7254026;19;153250;-60
2022/11/19 10:38:35;;;;;;;;;;;;;;;21.04;46.52;101039.63;7252270;19;155802;-60
2022/11/19 10:41:12;;;;;;;;;;;;;;;21.06;46.35;101040.16;7255875;19;155190;-60
2022/11/19 10:43:45;;;;;;;;;;;;;;;21.04;46.58;101038.78;7258611;19;153535;-60
2022/11/19 10:46:13;;;;;;;;;;;;;;;21.04;46.55;101033.16;7256248;19;155062;-60
2022/11/19 10:48:41;;;;;;;;;;;;;;;21.05;47.06;101032.88;7256175;19;152258;-61
2022/11/19 10:51:13;;;;;;;;;;;;;;;21.08;46.93;101040.66;7255554;19;153874;-60
2022/11/19 10:53:41;;;;;;;;;;;;;;;21.11;47.08;101042.03;7261798;19;154128;-60
2022/11/19 10:56:17;;;;;;;;;;;;;;;21.15;47.26;101031.88;7255596;19;154573;-61
2022/11/19 10:58:54;;;;;;;;;;;;;;;21.15;46.93;101029.91;7252126;19;154012;-60
2022/11/19 11:01:26;;;;;;;;;;;;;;;21.16;47.11;101025.97;7256284;19;153804;-60
2022/11/19 11:04:13;;;;;;;;;;;;;;;21.19;46.94;101027.31;7252726;19;153604;-61
2022/11/19 11:06:54;;;;;;;;;;;;;;;21.20;47.06;101027.00;7250773;19;154642;-61
2022/11/19 11:09:28;;;;;;;;;;;;;;;21.21;46.84;101023.03;7253901;19;154965;-61
2022/11/19 11:14:53;;;;;;;;;;;;;;;21.23;46.68;101017.09;7254742;19;154259;-60
2022/11/19 11:17:30;;;;;;;;;;;;;;;21.25;46.65;101020.44;7263941;19;154802;-60
2022/11/19 11:19:56;;;;;;;;;;;;;;;21.26;46.51;101022.09;7252566;19;154903;-60
2022/11/19 11:22:24;;;;;;;;;;;;;;;21.26;46.58;101016.47;7251616;19;152699;-61
2022/11/19 11:24:51;;;;;;;;;;;;;;;21.26;46.61;101022.94;7250590;19;153862;-61
2022/11/19 11:27:18;;;;;;;;;;;;;;;21.25;46.21;101012.00;7251468;19;152937;-61
2022/11/19 11:29:45;;;;;;;;;;;;;;;21.27;46.34;101012.53;7251498;19;153014;-61
2022/11/19 11:32:34;;;;;;;;;;;;;;;21.27;46.40;101012.53;7257239;19;155670;-61
2022/11/19 11:35:05;;;;;;;;;;;;;;;21.26;46.51;101013.66;7256536;19;154225;-60
2022/11/19 11:37:37;;;;;;;;;;;;;;;21.26;46.30;101011.69;7251207;19;154606;-61
2022/11/19 11:40:05;;;;;;;;;;;;;;;21.27;46.53;101006.91;7260744;19;153332;-60
2022/11/19 11:42:35;;;;;;;;;;;;;;;21.27;46.39;101004.09;7255435;19;154157;-61
2022/11/19 11:45:02;;;;;;;;;;;;;;;21.28;46.17;101012.22;7256264;19;154246;-60
2022/11/19 11:47:31;;;;;;;;;;;;;;;21.27;46.45;101002.13;7253869;19;153533;-60
2022/11/19 11:49:58;;;;;;;;;;;;;;;21.27;46.28;101004.94;7256795;19;153991;-61
2022/11/19 11:52:39;;;;;;;;;;;;;;;21.28;46.00;101008.56;7254147;19;155191;-60
2022/11/19 11:55:12;;;;;;;;;;;;;;;21.27;46.41;101012.53;7252094;19;154967;-61
2022/11/19 11:57:54;;;;;;;;;;;;;;;21.26;46.04;101006.06;7255895;19;153713;-60
2022/11/19 12:00:41;;;;;;;;;;;;;;;21.27;46.33;101004.94;7249307;19;154204;-60
2022/11/19 12:03:17;;;;;;;;;;;;;;;21.26;46.24;101003.25;7236417;19;159060;-60
2022/11/19 12:06:06;;;;;;;;;;;;;;;21.27;45.88;101004.09;7242299;19;154082;-60
2022/11/19 12:08:51;;;;;;;;;;;;;;;21.26;46.44;100999.59;7249271;19;154328;-60
2022/11/19 12:11:55;;;;;;;;;;;;;;;21.26;46.56;101006.06;7252934;19;153066;-60
2022/11/19 12:14:49;;;;;;;;;;;;;;;21.28;46.68;101009.41;7252862;19;155489;-60
2022/11/19 12:17:18;;;;;;;;;;;;;;;21.33;46.82;101011.28;7250079;19;154869;-60
2022/11/19 12:19:45;;;;;;;;;;;;;;;21.36;46.40;101010.66;7251311;19;154178;-61
2022/11/19 12:22:19;;;;;;;;;;;;;;;21.39;46.31;101007.22;7251876;19;155600;-61
2022/11/19 12:24:45;;;;;;;;;;;;;;;21.43;46.45;101016.69;7258292;19;153592;-60
2022/11/19 12:27:27;;;;;;;;;;;;;;;21.47;46.30;101005.66;7250702;19;152289;-61
2022/11/19 12:29:56;;;;;;;;;;;;;;;21.50;46.42;101007.84;7251952;19;154270;-61
2022/11/19 12:32:39;;;;;;;;;;;;;;;21.53;46.56;101012.84;7251701;19;153952;-60
2022/11/19 12:35:07;;;;;;;;;;;;;;;21.54;46.61;101011.69;7251312;19;153906;-61
2022/11/19 12:37:59;;;;;;;;;;;;;;;21.56;46.19;101012.22;7248604;19;153341;-61
2022/11/19 12:40:38;;;;;;;;;;;;;;;21.58;46.44;101016.34;7254330;19;154174;-61
2022/11/19 12:43:10;;;;;;;;;;;;;;;21.59;46.10;101014.38;7260245;19;153784;-61
2022/11/19 12:45:52;;;;;;;;;;;;;;;21.61;46.33;101018.56;7256408;19;154196;-61
2022/11/19 12:48:42;;;;;;;;;;;;;;;21.61;46.19;101027.00;7266154;19;153777;-60
2022/11/19 12:51:28;;;;;;;;;;;;;;;21.62;46.03;101017.38;7255919;19;155784;-60
2022/11/19 12:54:15;;;;;;;;;;;;;;;21.61;45.81;101017.72;7253610;19;154247;-61
2022/11/19 12:57:02;;;;;;;;;;;;;;;21.61;45.72;101017.72;7256468;19;153667;-61
2022/11/19 12:59:46;;;;;;;;;;;;;;;21.60;45.52;101022.50;7253711;19;154692;-60
2022/11/19 13:02:48;;;;;;;;;;;;;;;21.59;45.70;101023.66;7253802;19;154280;-60